Time;durP1;ratioP1;P1;durP2;ratioP2;P2;SDS_P1;SDS_P2;PMS_P1;PMS_P2;Temp;Humidity;BMP_temperature;BMP_pressure;BME280_temperature;BME280_humidity;BME280_pressure;Samples;Min_cycle;Max_cycle;Signal;HPM_P1;HPM_P2
2021/05/13 00:01:30;;;;;;;11.80;7.58;;;;;;;11.94;74.73;93425.27;1740873;82;20988;-53
2021/05/13 00:03:57;;;;;;;11.73;7.47;;;;;;;11.93;74.81;93425.88;1741002;82;21075;-54
2021/05/13 00:06:23;;;;;;;12.35;7.45;;;;;;;11.96;74.77;93415.28;1740924;81;21077;-54
2021/05/13 00:08:56;;;;;;;10.43;7.97;;;;;;;11.94;74.87;93426.02;1740974;82;21088;-53
2021/05/13 00:11:34;;;;;;;14.95;9.23;;;;;;;11.88;75.08;93425.85;1741096;82;20989;-54
2021/05/13 00:14:03;;;;;;;14.70;7.80;;;;;;;11.84;75.12;93415.64;1741114;82;20993;-54
2021/05/13 00:16:31;;;;;;;11.28;8.88;;;;;;;11.80;75.38;93414.50;1740984;82;20960;-54
2021/05/13 00:19:00;;;;;;;14.65;8.05;;;;;;;11.80;75.59;93415.88;1741026;82;21054;-54
2021/05/13 00:21:27;;;;;;;20.80;9.53;;;;;;;11.81;75.57;93416.02;1740918;82;21056;-55
2021/05/13 00:23:54;;;;;;;13.55;8.68;;;;;;;11.84;75.53;93415.03;1741024;82;21100;-54
2021/05/13 00:29:09;;;;;;;15.05;9.23;;;;;;;11.86;75.44;93415.30;1741023;82;21488;-55
2021/05/13 00:31:36;;;;;;;13.25;9.65;;;;;;;11.82;75.36;93410.64;1740529;82;21092;-54
2021/05/13 00:34:03;;;;;;;16.02;8.85;;;;;;;11.75;75.46;93418.58;1740764;82;20973;-54
2021/05/13 00:36:31;;;;;;;14.23;8.13;;;;;;;11.71;75.42;93412.53;1740810;82;21068;-54
2021/05/13 00:38:59;;;;;;;13.03;8.80;;;;;;;11.64;75.46;93415.09;1741023;82;21615;-54
2021/05/13 00:41:27;;;;;;;13.65;8.10;;;;;;;11.60;75.74;93420.06;1740969;82;20993;-54
2021/05/13 00:43:53;;;;;;;12.73;8.38;;;;;;;11.59;75.80;93413.05;1741003;82;21089;-54
2021/05/13 00:46:24;;;;;;;12.18;8.23;;;;;;;11.57;75.86;93413.39;1740855;82;21622;-54
2021/05/13 00:49:01;;;;;;;8.15;7.20;;;;;;;11.53;76.00;93421.82;1740930;82;20905;-54
2021/05/13 00:51:21;;;;;;;16.65;7.95;;;;;;;11.51;76.09;93420.17;1742117;82;21140;-54
2021/05/13 00:53:47;;;;;;;9.90;7.33;;;;;;;11.49;75.93;93419.91;1746538;82;21578;-54
2021/05/13 00:56:14;;;;;;;10.53;7.62;;;;;;;11.41;75.90;93414.70;1746512;82;21096;-54
2021/05/13 00:58:45;;;;;;;15.05;9.23;;;;;;;11.33;76.05;93416.34;1746422;82;21044;-54
2021/05/13 01:01:15;;;;;;;19.55;8.48;;;;;;;11.26;76.24;93420.14;1746002;82;21064;-54
2021/05/13 01:03:42;;;;;;;23.85;8.48;;;;;;;11.19;76.60;93424.06;1746655;82;21560;-54
2021/05/13 01:06:13;;;;;;;10.50;8.25;;;;;;;11.09;77.01;93410.92;1746570;80;21544;-54
2021/05/13 01:08:43;;;;;;;8.28;6.60;;;;;;;11.05;77.35;93409.77;1746524;82;21044;-53
2021/05/13 01:11:14;;;;;;;15.33;8.00;;;;;;;11.02;77.24;93414.10;1746787;82;20929;-53
2021/05/13 01:14:03;;;;;;;11.28;7.92;;;;;;;10.95;77.42;93415.27;1746348;82;20921;-54
2021/05/13 01:16:51;;;;;;;13.53;8.38;;;;;;;10.89;77.61;93420.55;1746045;82;21063;-54
2021/05/13 01:18:58;;;;;;;15.10;8.55;;;;;;;10.82;77.78;93412.72;1744028;82;21060;-53
2021/05/13 01:21:24;;;;;;;12.58;8.15;;;;;;;10.75;77.91;93415.26;1746461;82;21785;-52
2021/05/13 01:23:51;;;;;;;11.65;7.15;;;;;;;10.69;78.02;93399.17;1746384;82;21024;-54
2021/05/13 01:26:19;;;;;;;11.75;7.22;;;;;;;10.69;78.29;93403.30;1746443;82;21068;-54
2021/05/13 01:28:45;;;;;;;9.33;7.58;;;;;;;10.67;78.25;93405.14;1746363;82;21020;-54
2021/05/13 01:31:12;;;;;;;16.67;8.53;;;;;;;10.66;78.29;93397.36;1746582;82;21488;-54
2021/05/13 01:33:42;;;;;;;9.10;7.53;;;;;;;10.62;78.35;93404.45;1746392;82;21542;-53
2021/05/13 01:36:07;;;;;;;8.63;7.62;;;;;;;10.57;78.32;93398.88;1746386;81;21106;-55
2021/05/13 01:38:34;;;;;;;11.40;7.62;;;;;;;10.49;78.47;93393.02;1746364;82;20960;-54
2021/05/13 01:41:01;;;;;;;14.43;8.03;;;;;;;10.46;78.74;93397.33;1746337;82;21056;-54
2021/05/13 01:43:29;;;;;;;10.68;7.40;;;;;;;10.38;78.87;93385.97;1746420;82;21088;-53
2021/05/13 01:45:57;;;;;;;9.93;7.30;;;;;;;10.26;79.04;93393.94;1746579;81;21018;-54
2021/05/13 01:48:26;;;;;;;17.52;8.83;;;;;;;10.17;79.26;93393.30;1746383;82;20925;-53
2021/05/13 01:50:55;;;;;;;29.05;9.65;;;;;;;10.07;79.49;93385.01;1745518;82;21024;-54
2021/05/13 01:53:21;;;;;;;32.03;13.00;;;;;;;10.02;79.93;93385.05;1740857;82;20985;-54
2021/05/13 01:55:49;;;;;;;24.27;10.98;;;;;;;9.97;80.12;93377.46;1741020;82;21452;-53
2021/05/13 01:58:15;;;;;;;18.45;11.70;;;;;;;9.95;80.19;93379.19;1740901;81;21866;-54
2021/05/13 02:00:44;;;;;;;13.62;9.98;;;;;;;9.90;80.33;93379.84;1740902;82;20975;-55
2021/05/13 02:03:12;;;;;;;22.00;12.60;;;;;;;9.92;80.57;93374.02;1741023;82;20945;-54
2021/05/13 02:05:39;;;;;;;21.27;11.45;;;;;;;9.92;80.41;93369.90;1740906;82;21019;-54
2021/05/13 02:08:06;;;;;;;16.90;11.15;;;;;;;9.95;80.56;93364.08;1740810;81;21080;-54
2021/05/13 02:10:33;;;;;;;17.15;10.72;;;;;;;9.98;80.40;93363.87;1740977;82;21075;-54
2021/05/13 02:13:01;;;;;;;25.82;10.43;;;;;;;9.98;80.48;93375.48;1740931;82;20936;-54
2021/05/13 02:15:28;;;;;;;15.68;9.13;;;;;;;9.98;80.34;93372.11;1740878;82;21520;-54
2021/05/13 02:17:56;;;;;;;20.68;9.05;;;;;;;9.95;80.17;93370.95;1740987;82;21001;-54
2021/05/13 02:20:24;;;;;;;14.83;8.55;;;;;;;9.90;80.22;93372.37;1740748;82;20956;-52
2021/05/13 02:22:50;;;;;;;20.77;9.70;;;;;;;9.92;80.15;93374.62;1741239;82;21112;-52
2021/05/13 02:25:17;;;;;;;10.35;8.23;;;;;;;9.88;79.93;93371.31;1740692;82;21111;-55
2021/05/13 02:27:43;;;;;;;15.48;9.55;;;;;;;9.85;80.08;93368.92;1740880;82;21012;-54
2021/05/13 02:30:13;;;;;;;15.25;10.20;;;;;;;9.85;80.20;93375.02;1740999;82;21128;-54
2021/05/13 02:32:41;;;;;;;15.75;12.50;;;;;;;9.88;80.39;93367.20;1740802;82;21024;-53
2021/05/13 02:35:11;;;;;;;19.02;9.43;;;;;;;9.92;80.34;93356.16;1740918;82;21098;-59
2021/05/13 02:37:38;;;;;;;14.13;10.05;;;;;;;9.95;80.23;93362.08;1740827;82;20995;-55
2021/05/13 02:40:06;;;;;;;18.10;10.30;;;;;;;9.95;80.00;93364.08;1740924;82;20969;-54
2021/05/13 02:42:33;;;;;;;22.07;12.35;;;;;;;9.84;79.97;93355.66;1740898;82;21516;-55
2021/05/13 02:45:00;;;;;;;24.52;13.95;;;;;;;9.78;79.99;93361.05;1740796;82;21068;-56
2021/05/13 02:47:26;;;;;;;21.95;13.83;;;;;;;9.74;80.01;93363.24;1740895;82;21657;-56
2021/05/13 02:49:53;;;;;;;21.30;13.55;;;;;;;9.71;79.87;93357.33;1740873;82;21087;-54
2021/05/13 02:52:20;;;;;;;32.93;14.50;;;;;;;9.67;79.93;93358.14;1740713;82;21559;-53
2021/05/13 02:54:46;;;;;;;22.25;15.40;;;;;;;9.65;80.14;93357.09;1740886;82;21107;-54
2021/05/13 02:57:13;;;;;;;23.32;14.55;;;;;;;9.65;80.34;93355.09;1740966;82;20933;-54
2021/05/13 02:59:48;;;;;;;29.85;17.07;;;;;;;9.68;80.51;93357.52;1740874;82;21698;-55
2021/05/13 03:02:14;;;;;;;26.48;13.00;;;;;;;9.73;80.50;93358.22;1711653;82;21084;-53
2021/05/13 03:04:41;;;;;;;21.70;13.30;;;;;;;9.79;80.49;93353.59;1740856;82;21540;-54
2021/05/13 03:07:08;;;;;;;26.02;12.75;;;;;;;9.89;80.34;93357.73;1740741;81;21056;-51
2021/05/13 03:09:46;;;;;;;23.35;13.32;;;;;;;9.92;80.22;93354.79;1740962;82;21448;-53
2021/05/13 03:12:08;;;;;;;20.10;13.08;;;;;;;9.96;80.26;93358.73;1739303;82;21076;-52
2021/05/13 03:14:36;;;;;;;17.37;12.45;;;;;;;10.03;80.30;93358.36;1740641;81;20988;-54
2021/05/13 03:17:03;;;;;;;18.00;10.85;;;;;;;10.10;79.95;93351.08;1740916;82;21484;-54
2021/05/13 03:19:40;;;;;;;17.00;11.10;;;;;;;10.13;79.75;93352.89;1741116;82;20992;-53
2021/05/13 03:22:02;;;;;;;21.00;11.90;;;;;;;10.11;79.53;93352.59;1738870;82;21040;-53
2021/05/13 03:27:01;;;;;;;19.32;11.97;;;;;;;10.08;79.53;93344.70;1740736;82;20973;-53
2021/05/13 03:29:22;;;;;;;23.62;11.12;;;;;;;10.07;79.47;93352.04;1739485;82;21576;-53
2021/05/13 03:31:48;;;;;;;17.30;10.88;;;;;;;10.03;79.51;93339.13;1740900;82;21065;-52
2021/05/13 03:34:15;;;;;;;45.00;11.25;;;;;;;10.00;79.58;93341.42;1740834;82;21514;-53
2021/05/13 03:36:41;;;;;;;17.60;11.05;;;;;;;10.01;79.68;93342.94;1740730;82;20985;-54
2021/05/13 03:39:09;;;;;;;22.90;14.05;;;;;;;10.06;79.56;93343.66;1740804;82;21026;-53
2021/05/13 03:41:37;;;;;;;23.45;16.37;;;;;;;10.05;79.61;93340.17;1740907;82;20996;-54
2021/05/13 03:44:04;;;;;;;21.90;15.08;;;;;;;10.11;79.42;93341.59;1740928;82;21004;-53
2021/05/13 03:46:31;;;;;;;27.55;16.05;;;;;;;10.11;79.24;93342.97;1740947;82;21566;-53
2021/05/13 03:48:58;;;;;;;25.02;16.35;;;;;;;10.10;79.30;93343.61;1740892;82;21144;-54
2021/05/13 03:51:25;;;;;;;28.20;15.65;;;;;;;10.16;79.42;93348.56;1740667;82;20996;-53
2021/05/13 03:53:51;;;;;;;25.17;15.08;;;;;;;10.24;79.07;93348.92;1740869;81;20973;-53
2021/05/13 03:56:18;;;;;;;21.07;15.20;;;;;;;10.26;79.03;93342.32;1740857;81;21072;-53
2021/05/13 03:58:51;;;;;;;25.23;14.63;;;;;;;10.29;79.09;93333.12;1740922;82;20992;-54
2021/05/13 04:01:28;;;;;;;31.27;13.10;;;;;;;10.34;79.14;93342.08;1740091;82;21039;-54
2021/05/13 04:03:43;;;;;;;22.15;12.15;;;;;;;10.41;79.02;93338.31;1738207;82;20940;-54
2021/05/13 04:06:09;;;;;;;27.15;13.00;;;;;;;10.51;78.83;93340.31;1740870;81;21012;-54
2021/05/13 04:08:36;;;;;;;27.65;14.70;;;;;;;10.57;78.61;93337.00;1711751;82;21520;-53
2021/05/13 04:11:03;;;;;;;17.87;12.25;;;;;;;10.61;78.40;93347.17;1740839;82;21088;-53
2021/05/13 04:13:30;;;;;;;22.17;13.88;;;;;;;10.59;78.27;93340.03;1741075;82;21044;-54
2021/05/13 04:16:00;;;;;;;24.20;15.25;;;;;;;10.56;78.15;93339.62;1740812;82;21068;-54
2021/05/13 04:18:27;;;;;;;23.98;14.45;;;;;;;10.52;78.32;93337.70;1741008;82;21075;-54
2021/05/13 04:20:53;;;;;;;22.13;13.85;;;;;;;10.56;78.42;93338.24;1740931;82;21004;-53
2021/05/13 04:23:20;;;;;;;30.15;20.10;;;;;;;10.63;78.34;93339.20;1740796;82;21069;-52
2021/05/13 04:25:46;;;;;;;23.98;15.93;;;;;;;10.64;78.17;93340.70;1741028;82;21595;-53
2021/05/13 04:28:13;;;;;;;25.52;15.03;;;;;;;10.63;78.20;93339.20;1740911;82;21432;-55
2021/05/13 04:30:40;;;;;;;25.90;14.75;;;;;;;10.63;78.16;93339.20;1740904;82;21012;-54
2021/05/13 04:33:06;;;;;;;38.63;15.30;;;;;;;10.67;78.21;93341.12;1741074;82;21477;-53
2021/05/13 04:35:33;;;;;;;23.45;14.00;;;;;;;10.70;78.10;93331.92;1740865;82;20965;-53
2021/05/13 04:37:59;;;;;;;22.25;13.88;;;;;;;10.71;78.15;93334.81;1740905;82;21086;-53
2021/05/13 04:40:26;;;;;;;26.85;14.73;;;;;;;10.73;78.01;93335.83;1740991;82;21044;-52
2021/05/13 04:42:52;;;;;;;23.98;15.38;;;;;;;10.73;77.99;93335.09;1740902;82;20980;-54
2021/05/13 04:45:19;;;;;;;36.95;12.80;;;;;;;10.78;78.01;93337.27;1741043;82;21616;-54
2021/05/13 04:48:02;;;;;;;19.12;13.32;;;;;;;10.82;77.87;93344.69;1740970;82;20996;-54
2021/05/13 04:50:14;;;;;;;16.37;12.18;;;;;;;10.87;77.94;93341.88;1737587;82;21077;-54
2021/05/13 04:52:41;;;;;;;33.38;15.28;;;;;;;10.95;77.73;93346.48;1743167;82;21109;-54
2021/05/13 04:55:09;;;;;;;28.47;14.40;;;;;;;11.00;77.75;93336.78;1746564;82;21618;-54
2021/05/13 04:57:37;;;;;;;22.98;14.15;;;;;;;11.11;77.66;93333.53;1746437;82;20988;-53
2021/05/13 05:00:07;;;;;;;25.50;14.35;;;;;;;11.21;77.52;93332.13;1746581;82;20968;-54
2021/05/13 05:02:33;;;;;;;24.05;12.68;;;;;;;11.33;77.24;93331.00;1746314;82;21117;-54
2021/05/13 05:05:00;;;;;;;23.40;14.80;;;;;;;11.44;76.84;93332.50;1746409;82;21052;-53
2021/05/13 05:07:27;;;;;;;23.15;11.97;;;;;;;11.49;76.46;93328.29;1746337;80;20985;-54
2021/05/13 05:09:53;;;;;;;27.32;13.13;;;;;;;11.50;76.25;93329.16;1746538;82;21005;-54
2021/05/13 05:12:20;;;;;;;26.95;12.78;;;;;;;11.51;76.08;93329.94;1746627;82;20969;-52
2021/05/13 05:14:47;;;;;;;91.50;17.73;;;;;;;11.50;75.88;93327.05;1746400;82;21021;-52
2021/05/13 05:17:14;;;;;;;33.33;15.23;;;;;;;11.48;75.99;93323.39;1746458;82;21496;-53
2021/05/13 05:19:40;;;;;;;37.28;16.20;;;;;;;11.49;75.91;93322.14;1746314;82;21520;-55
2021/05/13 05:22:07;;;;;;;24.52;13.90;;;;;;;11.49;76.00;93325.53;1746427;82;21076;-54
2021/05/13 05:24:34;;;;;;;23.20;12.80;;;;;;;11.52;76.02;93326.68;1746268;82;20948;-54
2021/05/13 05:27:02;;;;;;;28.12;12.20;;;;;;;11.58;75.87;93335.80;1745084;82;21092;-55
2021/05/13 05:29:29;;;;;;;44.20;13.70;;;;;;;11.67;75.60;93336.98;1730425;82;21624;-55
2021/05/13 05:31:56;;;;;;;39.90;12.07;;;;;;;11.76;75.38;93325.81;1692749;82;21550;-54
2021/05/13 05:34:22;;;;;;;30.80;13.10;;;;;;;11.78;75.09;93323.32;1732814;82;21082;-55
2021/05/13 05:36:49;;;;;;;23.42;10.82;;;;;;;11.73;75.15;93328.78;1736994;82;21028;-55
2021/05/13 05:39:16;;;;;;;24.27;12.15;;;;;;;11.72;75.18;93330.77;1740903;82;21200;-55
2021/05/13 05:41:42;;;;;;;27.30;12.25;;;;;;;11.72;75.09;93329.38;1731897;82;21557;-54
2021/05/13 05:44:09;;;;;;;19.73;11.53;;;;;;;11.73;75.21;93330.89;1712181;82;21568;-55
2021/05/13 05:46:35;;;;;;;32.80;10.78;;;;;;;11.78;75.12;93335.72;1726287;82;21130;-57
2021/05/13 05:49:02;;;;;;;31.82;12.05;;;;;;;11.79;75.04;93335.85;1710017;82;22240;-55
2021/05/13 05:51:29;;;;;;;25.37;12.25;;;;;;;11.80;75.08;93342.09;1715592;82;21612;-54
2021/05/13 05:53:56;;;;;;;23.77;12.43;;;;;;;11.83;75.13;93335.00;1719764;82;21179;-55
2021/05/13 05:56:23;;;;;;;27.62;12.33;;;;;;;11.91;75.08;93334.67;1706216;81;21052;-56
2021/05/13 05:58:50;;;;;;;28.00;11.18;;;;;;;12.00;75.01;93335.89;1710294;82;21095;-56
2021/05/13 06:01:17;;;;;;;32.70;12.30;;;;;;;12.07;74.79;93329.91;1715688;82;21893;-55
2021/05/13 06:03:44;;;;;;;23.10;12.07;;;;;;;12.10;74.66;93332.33;1680661;82;21531;-56
2021/05/13 06:06:10;;;;;;;22.27;11.57;;;;;;;12.13;74.73;93326.59;1704007;82;21086;-56
2021/05/13 06:08:37;;;;;;;19.42;10.72;;;;;;;12.18;74.52;93332.76;1702825;82;22036;-59
2021/05/13 06:11:04;;;;;;;25.50;12.05;;;;;;;12.18;74.57;93332.76;1707461;82;21123;-55
2021/05/13 06:13:31;;;;;;;28.62;13.18;;;;;;;12.17;74.57;93334.01;1696586;82;21149;-56
2021/05/13 06:15:57;;;;;;;15.75;10.38;;;;;;;12.17;74.79;93327.72;1710263;82;21117;-58
2021/05/13 06:18:24;;;;;;;19.65;9.43;;;;;;;12.19;74.98;93331.52;1708240;82;21119;-55
2021/05/13 06:20:51;;;;;;;23.45;12.60;;;;;;;12.25;74.75;93333.67;1720479;81;21142;-56
2021/05/13 06:23:18;;;;;;;45.17;14.30;;;;;;;12.31;75.07;93338.63;1703386;82;21606;-58
2021/05/13 06:25:45;;;;;;;37.17;13.85;;;;;;;12.36;75.40;93344.78;1706895;82;21592;-55
2021/05/13 06:28:11;;;;;;;40.10;15.05;;;;;;;12.41;75.22;93338.54;1695446;82;21102;-55
2021/05/13 06:30:39;;;;;;;30.25;13.78;;;;;;;12.41;75.34;93338.54;1701157;82;21254;-57
2021/05/13 06:33:05;;;;;;;28.20;14.38;;;;;;;12.47;75.25;93331.69;1717058;82;21020;-56
2021/05/13 06:35:34;;;;;;;42.35;17.52;;;;;;;12.48;75.15;93335.31;1698244;82;21737;-55
2021/05/13 06:38:01;;;;;;;32.75;20.02;;;;;;;12.50;75.33;93329.31;1709078;82;21021;-56
2021/05/13 06:40:27;;;;;;;31.87;16.87;;;;;;;12.50;75.28;93325.17;1699533;82;21249;-56
2021/05/13 06:42:53;;;;;;;25.95;16.50;;;;;;;12.54;75.58;93316.81;1689856;82;21047;-58
2021/05/13 06:45:21;;;;;;;23.30;15.28;;;;;;;12.59;75.85;93324.34;1693577;82;21189;-57
2021/05/13 06:47:48;;;;;;;24.57;17.40;;;;;;;12.60;76.17;93324.48;1700762;82;21107;-58
2021/05/13 06:50:15;;;;;;;38.73;19.80;;;;;;;12.59;76.56;93325.73;1701953;82;21132;-61
2021/05/13 06:52:43;;;;;;;32.35;19.02;;;;;;;12.65;76.54;93320.38;1690175;82;21128;-56
2021/05/13 06:55:11;;;;;;;32.85;19.30;;;;;;;12.73;76.79;93318.64;1704817;82;21136;-56
2021/05/13 06:57:38;;;;;;;32.93;19.17;;;;;;;12.76;76.55;93316.91;1712415;82;21029;-57
2021/05/13 07:00:07;;;;;;;24.07;17.35;;;;;;;12.73;76.48;93315.14;1702322;82;21386;-56
2021/05/13 07:02:35;;;;;;;32.10;18.52;;;;;;;12.73;76.73;93323.42;1699732;82;21056;-56
2021/05/13 07:05:02;;;;;;;24.95;14.90;;;;;;;12.71;76.79;93323.91;1706775;81;21057;-58
2021/05/13 07:07:29;;;;;;;28.57;16.07;;;;;;;12.70;76.95;93316.87;1699077;82;21070;-54
2021/05/13 07:09:56;;;;;;;34.83;19.45;;;;;;;12.70;76.96;93322.39;1708359;82;21135;-56
2021/05/13 07:12:23;;;;;;;26.73;19.00;;;;;;;12.73;77.03;93319.28;1719300;82;21151;-55
2021/05/13 07:14:49;;;;;;;26.62;17.92;;;;;;;12.78;77.72;93317.94;1712254;82;21127;-55
2021/05/13 07:17:17;;;;;;;25.23;15.83;;;;;;;12.87;78.17;93317.70;1712550;82;22608;-58
2021/05/13 07:19:44;;;;;;;20.30;14.87;;;;;;;12.97;78.22;93318.27;1701741;82;21075;-56
2021/05/13 07:22:11;;;;;;;28.17;18.90;;;;;;;13.02;78.58;93316.16;1712427;82;21428;-55
2021/05/13 07:24:38;;;;;;;25.88;18.95;;;;;;;13.03;78.44;93320.42;1683323;82;21675;-54
2021/05/13 07:27:09;;;;;;;27.35;18.40;;;;;;;13.03;78.62;93324.56;1722891;82;21154;-53
2021/05/13 07:29:33;;;;;;;29.72;18.95;;;;;;;13.05;78.76;93322.08;1721824;82;21676;-53
2021/05/13 07:32:00;;;;;;;23.45;17.57;;;;;;;13.07;79.05;93325.84;1708694;82;21095;-51
2021/05/13 07:34:27;;;;;;;23.77;15.78;;;;;;;13.16;78.94;93325.63;1713939;82;21241;-53
2021/05/13 07:36:54;;;;;;;34.58;17.52;;;;;;;13.23;78.75;93320.25;1715085;82;21095;-54
2021/05/13 07:39:22;;;;;;;22.45;16.50;;;;;;;13.26;78.47;93322.02;1708362;82;22044;-53
2021/05/13 07:41:48;;;;;;;19.07;14.25;;;;;;;13.29;78.65;93318.99;1720420;82;21111;-54
2021/05/13 07:44:16;;;;;;;17.62;11.83;;;;;;;13.37;78.46;93316.50;1694420;82;21206;-56
2021/05/13 07:46:45;;;;;;;18.82;12.68;;;;;;;13.39;78.35;93319.52;1706307;82;21621;-52
2021/05/13 07:49:12;;;;;;;17.00;11.68;;;;;;;13.40;78.59;93323.79;1710800;82;21064;-55
2021/05/13 07:51:42;;;;;;;20.17;13.62;;;;;;;13.47;78.84;93322.67;1693416;82;21101;-55
2021/05/13 07:54:08;;;;;;;16.67;11.33;;;;;;;13.55;78.68;93318.19;1690379;82;21140;-55
2021/05/13 07:56:34;;;;;;;18.17;11.95;;;;;;;13.66;78.46;93320.20;1699462;82;21092;-57
2021/05/13 07:59:01;;;;;;;16.02;10.53;;;;;;;13.75;78.72;93317.95;1670442;85;21640;-53
2021/05/13 08:01:28;;;;;;;22.98;13.90;;;;;;;13.86;78.42;93314.44;1686937;82;21047;-58
2021/05/13 08:03:56;;;;;;;14.07;11.05;;;;;;;13.93;77.55;93319.45;1689952;83;21068;-57
2021/05/13 08:06:22;;;;;;;18.10;12.82;;;;;;;13.96;77.31;93315.70;1702494;82;21096;-56
2021/05/13 08:08:49;;;;;;;20.92;15.45;;;;;;;13.97;77.41;93313.06;1691929;82;21088;-52
2021/05/13 08:11:16;;;;;;;22.42;15.48;;;;;;;13.98;77.57;93310.42;1694213;84;21500;-55
2021/05/13 08:13:43;;;;;;;21.85;16.67;;;;;;;14.05;77.67;93300.23;1701592;83;21084;-53
2021/05/13 08:16:11;;;;;;;18.42;13.03;;;;;;;14.15;77.47;93298.08;1706318;82;21088;-63
2021/05/13 08:18:38;;;;;;;21.33;13.35;;;;;;;14.24;76.93;93301.25;1687007;82;21656;-55
2021/05/13 08:21:05;;;;;;;24.57;13.20;;;;;;;14.22;76.59;93301.73;1651510;84;21117;-57
2021/05/13 08:23:32;;;;;;;12.78;10.13;;;;;;;14.16;76.31;93295.47;1669299;84;21590;-56
2021/05/13 08:25:59;;;;;;;13.03;11.28;;;;;;;14.11;76.50;93298.97;1650785;84;21160;-56
2021/05/13 08:28:26;;;;;;;23.95;11.83;;;;;;;14.04;76.51;93297.34;1664116;84;21657;-58
2021/05/13 08:30:52;;;;;;;17.32;12.73;;;;;;;13.97;76.80;93300.63;1695055;83;21065;-55
2021/05/13 08:33:19;;;;;;;16.10;10.70;;;;;;;13.93;76.85;93295.95;1686256;82;21139;-56
2021/05/13 08:35:45;;;;;;;22.55;16.20;;;;;;;13.96;77.21;93303.27;1699638;82;21083;-53
2021/05/13 08:38:12;;;;;;;19.70;13.38;;;;;;;13.99;77.54;93305.02;1701877;82;21576;-53
2021/05/13 08:40:39;;;;;;;21.27;14.80;;;;;;;14.05;77.64;93314.06;1682781;84;21068;-55
2021/05/13 08:43:09;;;;;;;16.77;11.40;;;;;;;14.15;77.73;93308.41;1692655;84;21109;-56
2021/05/13 08:45:35;;;;;;;14.65;11.57;;;;;;;14.31;78.20;93314.55;1640834;84;21173;-55
2021/05/13 08:48:02;;;;;;;16.48;10.60;;;;;;;14.44;78.57;93309.38;1699324;82;21064;-54
2021/05/13 08:50:29;;;;;;;17.67;11.35;;;;;;;14.55;78.47;93314.91;1703485;82;21070;-54
2021/05/13 08:52:56;;;;;;;18.05;13.55;;;;;;;14.71;78.41;93316.11;1680250;82;21037;-54
2021/05/13 08:55:22;;;;;;;20.72;12.68;;;;;;;14.87;78.66;93313.30;1680478;83;21729;-56
2021/05/13 08:57:49;;;;;;;23.55;16.67;;;;;;;15.00;78.70;93303.05;1712640;82;21099;-56
2021/05/13 09:00:17;;;;;;;14.38;11.08;;;;;;;15.15;78.45;93311.16;1703923;83;21079;-57
2021/05/13 09:02:51;;;;;;;13.90;10.32;;;;;;;15.30;78.10;93316.41;1680629;83;21095;-55
2021/05/13 09:05:18;;;;;;;13.78;10.72;;;;;;;15.52;77.91;93314.27;1693810;82;21115;-55
2021/05/13 09:07:44;;;;;;;15.23;10.90;;;;;;;15.75;77.24;93311.47;1712995;82;21079;-54
2021/05/13 09:10:13;;;;;;;14.33;10.68;;;;;;;16.01;76.42;93311.80;1702737;83;21157;-54
2021/05/13 09:12:44;;;;;;;14.30;9.88;;;;;;;16.19;74.58;93318.08;1694258;84;21603;-56
2021/05/13 09:15:20;;;;;;;12.70;9.08;;;;;;;16.21;73.67;93312.77;1709105;82;21722;-57
2021/05/13 09:17:52;;;;;;;10.88;8.20;;;;;;;16.25;73.07;93311.84;1689329;82;21290;-59
2021/05/13 09:20:38;;;;;;;9.33;8.00;;;;;;;16.29;72.46;93310.30;1711300;83;21067;-56
2021/05/13 09:23:22;;;;;;;12.70;9.20;;;;;;;16.37;73.00;93314.67;1700653;83;21102;-53
2021/05/13 09:26:11;;;;;;;11.63;8.60;;;;;;;16.48;73.65;93314.55;1704711;82;21199;-53
2021/05/13 09:28:42;;;;;;;16.07;9.95;;;;;;;16.63;73.44;93312.91;1682424;83;21104;-52
2021/05/13 09:31:29;;;;;;;14.53;8.95;;;;;;;16.70;72.06;93313.70;1647300;85;21138;-54
2021/05/13 09:34:03;;;;;;;10.72;7.47;;;;;;;16.69;71.75;93316.37;1650231;85;21665;-57
2021/05/13 09:36:30;;;;;;;14.33;8.48;;;;;;;16.65;71.04;93310.36;1692055;83;21135;-54
2021/05/13 09:38:57;;;;;;;15.45;9.45;;;;;;;16.58;70.35;93310.92;1649098;85;21100;-55
2021/05/13 09:41:31;;;;;;;14.28;9.58;;;;;;;16.54;70.73;93309.72;1662770;84;21085;-57
2021/05/13 09:44:02;;;;;;;16.95;10.93;;;;;;;16.53;70.63;93311.00;1681101;83;21143;-57
2021/05/13 09:46:36;;;;;;;17.37;10.70;;;;;;;16.49;71.41;93309.12;1706715;82;21123;-54
2021/05/13 09:49:04;;;;;;;15.70;12.00;;;;;;;16.43;70.63;93307.04;1694883;82;21119;-57
2021/05/13 09:51:37;;;;;;;19.80;11.03;;;;;;;16.40;71.23;93312.25;1702423;82;21137;-58
2021/05/13 09:54:20;;;;;;;16.55;11.83;;;;;;;16.42;71.17;93306.92;1692482;83;21136;-55
2021/05/13 09:56:54;;;;;;;16.55;12.40;;;;;;;16.46;70.75;93312.31;1708952;83;21092;-54
2021/05/13 09:59:36;;;;;;;19.37;11.78;;;;;;;16.49;70.92;93302.17;1680422;83;21608;-58
2021/05/13 10:02:06;;;;;;;;;;;;;;;16.63;71.10;93307.36;1688447;83;21104;-59
2021/05/13 10:04:33;;;;;;;17.50;11.18;;;;;;;16.94;70.26;93300.45;1685247;83;20297;-51
2021/05/13 10:07:01;;;;;;;15.05;11.45;;;;;;;17.14;68.88;93300.72;1656108;86;21035;-51
2021/05/13 10:09:27;;;;;;;19.17;11.78;;;;;;;17.33;68.77;93301.49;1663075;84;21168;-55
2021/05/13 10:11:59;;;;;;;14.85;10.72;;;;;;;17.44;67.83;93302.02;1656516;86;21953;-54
2021/05/13 10:14:28;;;;;;;17.45;10.88;;;;;;;17.53;67.26;93303.78;1658292;84;20972;-55
2021/05/13 10:16:56;;;;;;;14.83;10.05;;;;;;;17.61;67.32;93298.37;1679687;84;21630;-57
2021/05/13 10:19:42;;;;;;;11.93;8.53;;;;;;;17.72;66.75;93298.95;1644710;84;21046;-60
2021/05/13 10:22:12;;;;;;;12.20;7.50;;;;;;;17.78;65.25;93291.27;1655699;86;21120;-63
2021/05/13 10:24:40;;;;;;;10.10;7.42;;;;;;;17.84;64.68;93291.94;1653688;84;21120;-57
2021/05/13 10:27:21;;;;;;;10.00;5.83;;;;;;;17.85;64.62;93290.66;1695174;84;21603;-58
2021/05/13 10:30:02;;;;;;;5.08;4.33;;;;;;;17.83;63.42;93289.04;1688951;84;21135;-56
2021/05/13 10:32:32;;;;;;;5.53;3.70;;;;;;;17.88;62.68;93289.62;1658909;84;21563;-55
2021/05/13 10:35:06;;;;;;;6.80;3.80;;;;;;;17.94;61.37;93290.91;1665946;85;21637;-54
2021/05/13 10:37:39;;;;;;;4.00;3.60;;;;;;;18.01;61.21;93284.73;1639942;86;22298;-55
2021/05/13 10:42:39;;;;;;;4.40;2.80;;;;;;;18.37;59.42;93286.68;1699013;84;21115;-58
2021/05/13 10:45:30;;;;;;;6.08;3.75;;;;;;;18.43;58.78;93288.75;1694587;84;21470;-56
2021/05/13 10:48:18;;;;;;;12.33;2.70;;;;;;;18.41;59.02;93289.90;1665262;86;21087;-55
2021/05/13 10:50:57;;;;;;;4.65;2.30;;;;;;;18.37;57.99;93292.25;1666698;86;21059;-56
2021/05/13 10:53:40;;;;;;;2.05;1.47;;;;;;;18.41;57.14;93286.48;1664052;84;21592;-53
2021/05/13 10:56:29;;;;;;;17.10;3.65;;;;;;;18.47;54.74;93287.13;1639345;86;21064;-52
2021/05/13 10:59:09;;;;;;;8.83;1.80;;;;;;;18.51;55.46;93282.02;1676437;84;21061;-55
2021/05/13 11:01:56;;;;;;;16.57;2.92;;;;;;;18.49;55.61;93285.95;1629577;87;21150;-51
2021/05/13 11:04:28;;;;;;;9.28;2.05;;;;;;;18.46;55.64;93284.23;1709438;82;21108;-54
2021/05/13 11:07:07;;;;;;;3.25;1.42;;;;;;;18.46;54.94;93284.23;1705123;82;21092;-55
2021/05/13 11:09:46;;;;;;;9.50;2.12;;;;;;;18.48;53.43;93278.88;1705231;83;21621;-55
2021/05/13 11:12:27;;;;;;;27.98;2.40;;;;;;;18.44;53.30;93278.45;1706319;82;22302;-55
2021/05/13 11:17:52;;;;;;;34.43;3.47;;;;;;;18.37;54.26;93277.70;1681651;84;21838;-55
2021/05/13 11:20:42;;;;;;;26.70;3.35;;;;;;;18.38;53.43;93277.80;1713567;82;21114;-53
2021/05/13 11:23:21;;;;;;;3.92;1.45;;;;;;;18.39;53.32;93275.12;1704718;82;21404;-54
2021/05/13 11:25:55;;;;;;;11.40;2.27;;;;;;;18.40;53.16;93274.47;1694029;82;21623;-53
2021/05/13 11:28:42;;;;;;;1.65;1.10;;;;;;;18.45;52.87;93270.20;1719051;82;20972;-56
2021/05/13 11:31:19;;;;;;;8.58;1.90;;;;;;;18.51;52.25;93270.11;1704416;82;21604;-56
2021/05/13 11:33:58;;;;;;;12.03;2.20;;;;;;;18.50;52.50;93260.99;1706488;82;21835;-54
2021/05/13 11:36:30;;;;;;;9.65;3.90;;;;;;;18.60;53.21;93270.45;1683890;82;21099;-56
2021/05/13 11:38:59;;;;;;;2.80;1.50;;;;;;;18.74;53.37;93274.75;1615552;87;21788;-53
2021/05/13 11:41:26;;;;;;;1.30;1.20;;;;;;;18.82;52.79;93275.60;1671682;82;21064;-54